createdAt,value
2017-12-11T00:01:03.969Z,95.30
2017-12-11T00:03:32.120Z,95.40
2017-12-11T00:06:00.247Z,95.50
2017-12-11T00:08:28.401Z,95.50
2017-12-11T00:10:56.545Z,95.50
2017-12-11T00:13:24.698Z,95.60
2017-12-11T00:15:52.825Z,95.60
2017-12-11T00:18:20.996Z,95.60
2017-12-11T00:20:49.120Z,96.00
2017-12-11T00:23:17.274Z,95.70
2017-12-11T00:25:45.404Z,95.70
2017-12-11T00:28:13.593Z,95.70
2017-12-11T00:30:41.710Z,95.80
2017-12-11T00:33:09.877Z,95.80
2017-12-11T00:35:38.011Z,95.80
2017-12-11T00:38:06.166Z,95.80
2017-12-11T00:40:34.294Z,95.90
2017-12-11T00:43:02.446Z,95.90
2017-12-11T00:45:30.569Z,95.80
2017-12-11T00:47:58.722Z,95.90
2017-12-11T00:50:26.841Z,95.90
2017-12-11T00:52:54.994Z,95.90
2017-12-11T00:55:23.112Z,95.90
2017-12-11T00:57:51.263Z,96.00
2017-12-11T01:00:19.386Z,96.00
2017-12-11T01:02:47.537Z,95.90
2017-12-11T01:05:15.670Z,96.00
2017-12-11T01:07:43.817Z,95.90
2017-12-11T01:10:11.942Z,95.90
2017-12-11T01:12:40.097Z,96.00
2017-12-11T01:15:08.219Z,96.00
2017-12-11T01:17:36.341Z,96.00
2017-12-11T01:20:04.484Z,96.00
2017-12-11T01:22:32.609Z,96.00
2017-12-11T01:25:00.766Z,96.00
2017-12-11T01:27:28.889Z,96.00
2017-12-11T01:29:57.048Z,96.00
2017-12-11T01:32:25.169Z,96.00
2017-12-11T01:34:54.082Z,96.00
2017-12-11T01:37:22.197Z,95.90
2017-12-11T01:39:50.348Z,95.90
2017-12-11T01:42:18.473Z,95.90
2017-12-11T01:44:46.631Z,96.00
2017-12-11T01:47:14.760Z,96.00
2017-12-11T01:49:42.930Z,96.00
2017-12-11T01:52:11.045Z,96.00
2017-12-11T01:54:39.192Z,96.00
2017-12-11T01:57:07.320Z,96.00
2017-12-11T01:59:35.457Z,96.00
2017-12-11T02:02:03.590Z,96.10
2017-12-11T02:04:31.741Z,96.10
2017-12-11T02:06:59.879Z,96.50
2017-12-11T02:09:28.037Z,96.20
2017-12-11T02:11:56.157Z,96.20
2017-12-11T02:14:25.078Z,96.30
2017-12-11T02:16:53.201Z,96.20
2017-12-11T02:19:21.361Z,96.30
2017-12-11T02:21:49.478Z,96.30
2017-12-11T02:24:17.624Z,96.30
2017-12-11T02:26:45.745Z,96.30
2017-12-11T02:29:13.901Z,96.40
2017-12-11T02:31:42.029Z,96.40
2017-12-11T02:34:10.180Z,96.40
2017-12-11T02:36:38.310Z,96.40
2017-12-11T02:39:06.462Z,96.40
2017-12-11T02:41:34.590Z,96.40
2017-12-11T02:44:02.749Z,96.40
2017-12-11T02:46:30.876Z,96.50
2017-12-11T02:48:59.014Z,96.50
2017-12-11T02:51:27.160Z,96.50
2017-12-11T02:53:55.285Z,96.50
2017-12-11T02:56:23.449Z,96.50
2017-12-11T02:58:51.574Z,96.50
2017-12-11T03:01:19.728Z,96.60
2017-12-11T03:03:48.631Z,96.60
2017-12-11T03:06:16.787Z,96.60
2017-12-11T03:08:44.909Z,96.60
2017-12-11T03:11:13.065Z,96.50
2017-12-11T03:13:41.191Z,96.60
2017-12-11T03:16:09.351Z,96.60
2017-12-11T03:18:37.487Z,96.60
2017-12-11T03:21:05.642Z,96.60
2017-12-11T03:23:33.775Z,96.60
2017-12-11T03:26:01.928Z,96.60
2017-12-11T03:28:30.057Z,96.60
2017-12-11T03:30:58.977Z,96.60
2017-12-11T03:33:27.101Z,96.60
2017-12-11T03:35:55.262Z,96.60
2017-12-11T03:38:23.397Z,96.70
2017-12-11T03:40:51.557Z,96.70
2017-12-11T03:43:19.691Z,96.70
2017-12-11T03:45:47.860Z,96.70
2017-12-11T03:48:15.988Z,96.70
2017-12-11T03:50:44.118Z,96.70
2017-12-11T03:53:12.273Z,96.70
2017-12-11T03:55:40.401Z,96.70
2017-12-11T03:58:08.552Z,96.70
2017-12-11T04:00:36.682Z,96.70
2017-12-11T04:03:04.841Z,96.70
2017-12-11T04:05:32.968Z,96.70
2017-12-11T04:08:01.905Z,96.80
2017-12-11T04:10:30.034Z,96.80
2017-12-11T04:12:58.950Z,96.80
2017-12-11T04:15:27.124Z,96.80
2017-12-11T04:17:56.023Z,96.80
2017-12-11T04:20:24.145Z,96.80
2017-12-11T04:22:52.300Z,96.80
2017-12-11T04:25:20.429Z,96.80
2017-12-11T04:27:48.582Z,96.80
2017-12-11T04:30:16.709Z,96.80
2017-12-11T04:32:44.860Z,96.70
2017-12-11T04:35:12.989Z,96.70
2017-12-11T04:37:41.149Z,96.70
2017-12-11T04:40:09.273Z,96.70
2017-12-11T04:42:37.423Z,96.80
2017-12-11T04:45:06.319Z,96.70
2017-12-11T04:47:34.469Z,96.70
2017-12-11T04:50:02.601Z,96.70
2017-12-11T04:52:30.758Z,96.70
2017-12-11T04:54:58.889Z,96.70
2017-12-11T04:57:27.051Z,96.70
2017-12-11T04:59:55.180Z,96.70
2017-12-11T05:02:23.309Z,96.60
2017-12-11T05:04:51.469Z,96.70
2017-12-11T05:07:19.617Z,96.70
2017-12-11T05:09:47.764Z,96.60
2017-12-11T05:12:15.889Z,96.60
2017-12-11T05:14:44.050Z,96.60
2017-12-11T05:17:12.186Z,96.60
2017-12-11T05:19:40.342Z,96.60
2017-12-11T05:22:09.239Z,96.60
2017-12-11T05:24:37.397Z,96.60
2017-12-11T05:27:06.302Z,96.60
2017-12-11T05:29:34.449Z,96.60
2017-12-11T05:32:02.580Z,96.70
2017-12-11T05:34:30.734Z,96.80
2017-12-11T05:36:58.861Z,96.90
2017-12-11T05:39:27.018Z,96.90
2017-12-11T05:41:55.148Z,96.90
2017-12-11T05:44:23.304Z,96.90
2017-12-11T05:46:51.444Z,96.90
2017-12-11T05:49:19.660Z,96.80
2017-12-11T05:51:47.744Z,96.80
2017-12-11T05:54:15.897Z,96.80
2017-12-11T05:56:44.034Z,96.80
2017-12-11T05:59:12.188Z,96.80
2017-12-11T06:01:40.310Z,96.80
2017-12-11T06:04:08.465Z,96.80
2017-12-11T06:06:36.594Z,96.70
2017-12-11T06:09:04.766Z,96.80
2017-12-11T06:11:32.896Z,96.80
2017-12-11T06:14:01.029Z,96.80
2017-12-11T06:16:29.190Z,96.80
2017-12-11T06:18:57.313Z,96.80
2017-12-11T06:21:25.473Z,96.90
2017-12-11T06:23:53.603Z,96.90
2017-12-11T06:26:21.764Z,96.90
2017-12-11T06:28:49.893Z,96.90
2017-12-11T06:31:18.045Z,96.90
2017-12-11T06:33:46.173Z,96.90
2017-12-11T06:36:15.092Z,97.00
2017-12-11T06:38:43.229Z,96.90
2017-12-11T06:41:11.381Z,96.90
2017-12-11T06:43:39.510Z,96.90
2017-12-11T06:46:07.669Z,96.90
2017-12-11T06:48:35.790Z,96.90
2017-12-11T06:51:03.950Z,97.00
2017-12-11T06:53:32.073Z,97.00
2017-12-11T06:56:00.235Z,97.10
2017-12-11T06:58:31.332Z,97.10
2017-12-11T07:00:59.498Z,97.20
2017-12-11T07:03:27.624Z,97.20
2017-12-11T07:05:55.781Z,97.20
2017-12-11T07:08:23.908Z,97.20
2017-12-11T07:10:52.069Z,97.20
2017-12-11T07:13:20.192Z,97.20
2017-12-11T07:15:48.370Z,97.10
2017-12-11T07:18:16.495Z,97.10
2017-12-11T07:20:44.662Z,97.10
2017-12-11T07:23:12.810Z,97.40
2017-12-11T07:25:40.970Z,97.10
2017-12-11T07:28:09.104Z,97.10
2017-12-11T07:30:37.226Z,97.10
2017-12-11T07:33:05.381Z,97.10
2017-12-11T07:35:33.513Z,97.20
2017-12-11T07:38:01.677Z,97.30
2017-12-11T07:40:29.805Z,97.30
2017-12-11T07:42:57.976Z,97.30
2017-12-11T07:45:26.114Z,97.30
2017-12-11T07:47:54.270Z,97.20
2017-12-11T07:50:22.409Z,97.30
2017-12-11T07:52:57.510Z,97.30
2017-12-11T07:55:25.657Z,97.30
2017-12-11T07:57:53.817Z,97.30
2017-12-11T08:00:22.713Z,97.40
2017-12-11T08:02:50.864Z,97.40
2017-12-11T08:05:19.004Z,97.40
2017-12-11T08:07:47.156Z,97.30
2017-12-11T08:10:15.281Z,97.40
2017-12-11T08:12:43.441Z,97.40
2017-12-11T08:15:11.574Z,97.40
2017-12-11T08:17:39.707Z,97.40
2017-12-11T08:20:07.861Z,97.40
2017-12-11T08:22:35.993Z,97.40
2017-12-11T08:25:04.150Z,97.50
2017-12-11T08:27:32.285Z,97.40
2017-12-11T08:30:00.437Z,97.50
2017-12-11T08:32:28.574Z,97.40
2017-12-11T08:34:56.725Z,97.40
2017-12-11T08:37:25.629Z,97.50
2017-12-11T08:39:53.786Z,97.50
2017-12-11T08:42:21.913Z,97.50
2017-12-11T08:44:50.068Z,97.80
2017-12-11T08:47:18.200Z,97.50
2017-12-11T08:49:46.361Z,97.50
2017-12-11T08:52:14.488Z,97.40
2017-12-11T08:54:42.641Z,97.40
2017-12-11T08:57:10.769Z,97.80
2017-12-11T08:59:38.937Z,97.40
2017-12-11T09:02:07.073Z,97.40
2017-12-11T09:04:35.237Z,97.40
2017-12-11T09:07:04.151Z,97.30
2017-12-11T09:09:32.290Z,97.30
2017-12-11T09:12:00.450Z,97.30
2017-12-11T09:14:28.576Z,97.30
2017-12-11T09:16:56.762Z,97.30
2017-12-11T09:19:24.889Z,97.30
2017-12-11T09:21:53.051Z,97.30
2017-12-11T09:24:21.176Z,97.30
2017-12-11T09:26:49.332Z,97.30
2017-12-11T09:29:17.509Z,97.30
2017-12-11T09:31:45.637Z,97.30
2017-12-11T09:34:13.772Z,97.30
2017-12-11T09:36:41.929Z,97.30
2017-12-11T09:39:10.065Z,97.30
2017-12-11T09:41:38.229Z,97.30
2017-12-11T09:44:06.377Z,97.30
2017-12-11T09:46:34.527Z,97.60
2017-12-11T09:49:02.657Z,97.30
2017-12-11T09:51:30.810Z,97.30
2017-12-11T09:53:58.941Z,97.30
2017-12-11T09:56:27.134Z,97.20
2017-12-11T09:58:55.261Z,97.20
2017-12-11T10:01:23.388Z,97.10
2017-12-11T10:03:51.544Z,97.00
2017-12-11T10:06:19.670Z,97.00
2017-12-11T10:08:47.829Z,97.00
2017-12-11T10:11:15.954Z,97.00
2017-12-11T10:13:44.109Z,97.00
2017-12-11T10:16:12.232Z,97.00
2017-12-11T10:18:40.386Z,97.00
2017-12-11T10:21:08.525Z,97.00
2017-12-11T10:23:37.446Z,97.00
2017-12-11T10:26:05.568Z,97.00
2017-12-11T10:28:33.722Z,97.00
2017-12-11T10:31:01.851Z,97.00
2017-12-11T10:33:30.004Z,97.00
2017-12-11T10:35:58.920Z,97.00
2017-12-11T10:38:27.094Z,97.00
2017-12-11T10:40:55.276Z,97.00
2017-12-11T10:43:23.427Z,96.80
2017-12-11T10:45:51.574Z,96.80
2017-12-11T10:48:19.744Z,96.80
2017-12-11T10:50:47.898Z,96.80
2017-12-11T10:53:16.353Z,96.80
2017-12-11T10:55:44.484Z,96.80
2017-12-11T10:58:13.391Z,96.80
2017-12-11T11:00:41.551Z,96.80
2017-12-11T11:03:10.450Z,96.80
2017-12-11T11:05:38.632Z,96.80
2017-12-11T11:08:06.764Z,96.80
2017-12-11T11:10:34.930Z,96.80
2017-12-11T11:13:03.057Z,96.70
2017-12-11T11:15:31.209Z,96.70
2017-12-11T11:18:00.142Z,96.70
2017-12-11T11:20:28.596Z,96.70
2017-12-11T11:22:57.490Z,96.70
2017-12-11T11:25:25.641Z,96.60
2017-12-11T11:27:54.541Z,96.60
2017-12-11T11:30:22.701Z,96.50
2017-12-11T11:32:50.832Z,96.50
2017-12-11T11:35:18.989Z,96.40
2017-12-11T11:37:47.126Z,96.60
2017-12-11T11:40:15.277Z,96.60
2017-12-11T11:42:43.410Z,96.60
2017-12-11T11:45:11.568Z,96.60
2017-12-11T11:47:39.692Z,96.60
2017-12-11T11:50:07.874Z,96.60
2017-12-11T11:52:36.011Z,96.60
2017-12-11T11:55:04.149Z,96.70
2017-12-11T11:57:32.302Z,96.70
2017-12-11T12:00:00.426Z,96.70
2017-12-11T12:02:28.581Z,96.70
2017-12-11T12:04:56.709Z,96.70
2017-12-11T12:07:24.868Z,96.70
2017-12-11T12:09:52.995Z,96.70
2017-12-11T12:12:21.159Z,96.60
2017-12-11T12:14:50.054Z,96.50
2017-12-11T12:17:18.210Z,96.50
2017-12-11T12:19:46.333Z,96.50
2017-12-11T12:22:14.486Z,96.40
2017-12-11T12:24:42.619Z,96.40
2017-12-11T12:27:10.783Z,96.30
2017-12-11T12:29:38.905Z,96.20
2017-12-11T12:32:07.070Z,96.30
2017-12-11T12:34:35.193Z,96.20
2017-12-11T12:37:03.349Z,96.20
2017-12-11T12:39:31.472Z,96.20
2017-12-11T12:42:00.400Z,96.30
2017-12-11T12:44:28.533Z,96.20
2017-12-11T12:46:56.664Z,96.20
2017-12-11T12:49:24.822Z,96.50
2017-12-11T12:51:52.944Z,96.10
2017-12-11T12:54:21.110Z,96.20
2017-12-11T12:56:49.239Z,96.10
2017-12-11T12:59:17.586Z,96.10
2017-12-11T13:01:46.473Z,96.50
2017-12-11T13:04:14.628Z,96.10
2017-12-11T13:06:42.757Z,96.10
2017-12-11T13:09:11.117Z,96.10
2017-12-11T13:11:40.011Z,96.10
2017-12-11T13:14:08.162Z,96.00
2017-12-11T13:16:37.066Z,96.50
2017-12-11T13:19:05.221Z,96.10
2017-12-11T13:21:33.823Z,96.00
2017-12-11T13:24:01.992Z,96.00
2017-12-11T13:26:30.889Z,96.10
2017-12-11T13:28:59.058Z,96.10
2017-12-11T13:31:28.061Z,96.00
2017-12-11T13:33:56.973Z,96.00
2017-12-11T13:36:25.102Z,96.00
2017-12-11T13:38:53.256Z,96.00
2017-12-11T13:41:21.388Z,96.40
2017-12-11T13:43:49.549Z,96.00
2017-12-11T13:46:17.676Z,96.00
2017-12-11T13:48:45.837Z,96.00
2017-12-11T13:51:14.171Z,96.00
2017-12-11T13:53:43.085Z,96.00
2017-12-11T13:56:11.221Z,95.90
2017-12-11T13:58:40.143Z,96.00
2017-12-11T14:01:08.279Z,96.00
2017-12-11T14:03:36.437Z,96.00
2017-12-11T14:06:04.577Z,96.00
2017-12-11T14:08:32.769Z,96.00
2017-12-11T14:11:00.915Z,96.00
2017-12-11T14:13:29.099Z,95.90
2017-12-11T14:15:57.225Z,95.90
2017-12-11T14:18:25.384Z,96.00
2017-12-11T14:20:53.521Z,96.00
2017-12-11T14:23:21.672Z,96.00
2017-12-11T14:25:49.805Z,96.10
2017-12-11T14:28:17.956Z,96.10
2017-12-11T14:30:46.106Z,96.00
2017-12-11T14:33:14.261Z,96.00
2017-12-11T14:35:42.418Z,96.00
2017-12-11T14:38:10.565Z,96.10
2017-12-11T14:40:38.718Z,96.10
2017-12-11T14:43:06.854Z,96.10
2017-12-11T14:45:35.028Z,96.10
2017-12-11T14:48:03.178Z,96.10
2017-12-11T14:50:32.095Z,96.20
2017-12-11T14:53:00.221Z,96.20
2017-12-11T14:55:28.373Z,96.20
2017-12-11T14:57:56.512Z,96.10
2017-12-11T15:00:24.676Z,96.20
2017-12-11T15:02:52.807Z,96.20
2017-12-11T15:05:20.957Z,96.20
2017-12-11T15:07:49.166Z,96.20
2017-12-11T15:10:17.325Z,96.30
2017-12-11T15:12:45.459Z,96.30
2017-12-11T15:15:14.727Z,96.30
2017-12-11T15:17:43.639Z,96.40
2017-12-11T15:20:11.810Z,96.40
2017-12-11T15:22:39.996Z,96.70
2017-12-11T15:25:08.162Z,96.40
2017-12-11T15:27:36.324Z,96.50
2017-12-11T15:30:05.343Z,96.50
2017-12-11T15:32:33.537Z,96.50
2017-12-11T15:35:01.804Z,96.50
2017-12-11T15:37:30.114Z,96.50
2017-12-11T15:39:58.267Z,96.60
2017-12-11T15:42:26.421Z,96.70
2017-12-11T15:44:54.554Z,96.70
2017-12-11T15:47:22.711Z,96.70
2017-12-11T15:49:50.841Z,96.80
2017-12-11T15:52:19.001Z,96.80
2017-12-11T15:54:47.120Z,96.80
2017-12-11T15:57:15.363Z,96.80
2017-12-11T15:59:43.497Z,96.80
2017-12-11T16:02:12.430Z,96.90
2017-12-11T16:04:40.562Z,96.90
2017-12-11T16:07:08.722Z,96.90
2017-12-11T16:09:36.868Z,96.90
2017-12-11T16:12:05.221Z,96.90
2017-12-11T16:14:33.346Z,97.10
2017-12-11T16:17:01.510Z,97.10
2017-12-11T16:19:29.639Z,97.10
2017-12-11T16:21:57.845Z,97.10
2017-12-11T16:24:25.937Z,97.20
2017-12-11T16:26:54.155Z,97.20
2017-12-11T16:29:22.299Z,97.20
2017-12-11T16:31:50.456Z,97.30
2017-12-11T16:34:18.592Z,97.30
2017-12-11T16:36:46.760Z,97.30
2017-12-11T16:39:14.932Z,97.30
2017-12-11T16:41:43.107Z,97.40
2017-12-11T16:44:11.249Z,97.40
2017-12-11T16:46:39.604Z,97.40
2017-12-11T16:49:07.760Z,97.40
2017-12-11T16:51:36.020Z,97.50
2017-12-11T16:54:04.184Z,97.50
2017-12-11T16:56:32.513Z,97.50
2017-12-11T16:59:01.040Z,97.50
2017-12-11T17:01:29.171Z,97.60
2017-12-11T17:03:57.339Z,97.60
2017-12-11T17:06:25.489Z,97.60
2017-12-11T17:08:53.637Z,97.70
2017-12-11T17:11:21.793Z,97.70
2017-12-11T17:13:49.962Z,97.70
2017-12-11T17:16:18.105Z,97.70
2017-12-11T17:18:46.351Z,97.70
2017-12-11T17:21:14.546Z,97.70
2017-12-11T17:23:42.741Z,97.70
2017-12-11T17:26:10.868Z,97.80
2017-12-11T17:28:39.033Z,97.80
2017-12-11T17:31:07.166Z,97.80
2017-12-11T17:33:35.333Z,97.80
2017-12-11T17:36:03.649Z,97.80
2017-12-11T17:38:32.234Z,97.70
2017-12-11T17:41:00.782Z,97.80
2017-12-11T17:43:30.390Z,98.10
2017-12-11T17:45:58.556Z,97.90
2017-12-11T17:48:26.719Z,97.80
2017-12-11T17:50:54.901Z,97.80
2017-12-11T17:53:23.110Z,97.90
2017-12-11T17:55:51.443Z,97.90
2017-12-11T17:58:19.755Z,97.90
2017-12-11T18:00:48.801Z,97.90
2017-12-11T18:03:17.128Z,97.90
2017-12-11T18:05:46.121Z,98.00
2017-12-11T18:08:15.049Z,97.90
2017-12-11T18:10:43.189Z,97.90
2017-12-11T18:13:12.106Z,98.00
2017-12-11T18:15:40.280Z,98.00
2017-12-11T18:18:08.596Z,98.00
2017-12-11T18:20:36.753Z,98.00
2017-12-11T18:23:05.166Z,98.00
2017-12-11T18:25:33.854Z,98.00
2017-12-11T18:28:02.146Z,98.10
2017-12-11T18:30:31.927Z,98.10
2017-12-11T18:33:00.545Z,98.10
2017-12-11T18:35:29.364Z,98.20
2017-12-11T18:37:58.106Z,98.20
2017-12-11T18:40:28.204Z,98.30
2017-12-11T18:42:58.177Z,98.30
2017-12-11T18:45:27.511Z,98.30
2017-12-11T18:47:56.191Z,98.30
2017-12-11T18:50:24.921Z,98.30
2017-12-11T18:52:53.586Z,98.40
2017-12-11T18:55:23.541Z,98.50
2017-12-11T18:57:51.804Z,98.50
2017-12-11T19:00:22.473Z,98.50
2017-12-11T19:02:50.682Z,98.50
2017-12-11T19:05:19.035Z,98.60
2017-12-11T19:07:47.302Z,98.60
2017-12-11T19:10:15.482Z,98.60
2017-12-11T19:12:43.636Z,98.60
2017-12-11T19:15:11.822Z,98.60
2017-12-11T19:17:40.242Z,98.60
2017-12-11T19:20:08.447Z,98.60
2017-12-11T19:22:36.665Z,98.60
2017-12-11T19:25:05.007Z,98.60
2017-12-11T19:27:33.401Z,98.70
2017-12-11T19:30:01.626Z,98.70
2017-12-11T19:32:29.892Z,98.60
2017-12-11T19:34:58.098Z,98.60
2017-12-11T19:37:26.327Z,98.60
2017-12-11T19:39:54.858Z,98.60
2017-12-11T19:42:23.216Z,98.60
2017-12-11T19:44:51.570Z,98.70
2017-12-11T19:47:19.846Z,98.60
2017-12-11T19:49:48.135Z,98.60
2017-12-11T19:52:17.459Z,98.70
2017-12-11T19:54:46.476Z,98.70
2017-12-11T19:57:14.668Z,98.70
2017-12-11T19:59:42.911Z,98.70
2017-12-11T20:02:11.929Z,98.70
2017-12-11T20:04:40.135Z,98.70
2017-12-11T20:07:08.328Z,98.70
2017-12-11T20:09:36.484Z,98.70
2017-12-11T20:12:04.670Z,98.70
2017-12-11T20:14:33.344Z,98.70
2017-12-11T20:17:03.084Z,98.70
2017-12-11T20:19:31.991Z,98.80
2017-12-11T20:22:00.224Z,98.80
2017-12-11T20:24:28.509Z,98.80
2017-12-11T20:26:56.803Z,98.80
2017-12-11T20:29:25.117Z,98.80
2017-12-11T20:31:53.416Z,98.80
2017-12-11T20:34:21.673Z,98.80
2017-12-11T20:36:54.183Z,98.80
2017-12-11T20:39:23.095Z,98.80
2017-12-11T20:41:56.248Z,98.80
2017-12-11T20:44:24.608Z,98.80
2017-12-11T20:46:52.805Z,98.80
2017-12-11T20:49:20.934Z,98.80
2017-12-11T20:51:49.099Z,98.80
2017-12-11T20:54:17.236Z,98.80
2017-12-11T20:56:45.396Z,98.80
2017-12-11T20:59:13.535Z,98.80
2017-12-11T21:01:41.724Z,98.90
2017-12-11T21:04:09.860Z,98.90
2017-12-11T21:06:38.017Z,98.90
2017-12-11T21:09:06.173Z,98.90
2017-12-11T21:11:34.360Z,98.90
2017-12-11T21:14:02.498Z,98.90
2017-12-11T21:16:30.671Z,98.90
2017-12-11T21:18:58.858Z,98.90
2017-12-11T21:21:27.750Z,98.90
2017-12-11T21:23:55.899Z,98.90
2017-12-11T21:26:24.039Z,98.90
2017-12-11T21:28:52.213Z,98.90
2017-12-11T21:31:21.177Z,98.90
2017-12-11T21:33:49.391Z,98.90
2017-12-11T21:36:17.581Z,98.90
2017-12-11T21:38:45.762Z,98.90
2017-12-11T21:41:13.958Z,98.90
2017-12-11T21:43:42.121Z,98.90
2017-12-11T21:46:10.253Z,98.90
2017-12-11T21:48:39.174Z,98.90
2017-12-11T21:51:07.311Z,98.90
2017-12-11T21:53:36.261Z,98.90
2017-12-11T21:56:04.427Z,99.20
2017-12-11T21:58:32.572Z,98.90
2017-12-11T22:01:00.705Z,99.00
2017-12-11T22:03:28.895Z,99.10
2017-12-11T22:05:57.030Z,99.10
2017-12-11T22:08:25.181Z,99.10
2017-12-11T22:10:53.322Z,99.10
2017-12-11T22:13:21.490Z,99.10
2017-12-11T22:15:50.436Z,99.40
2017-12-11T22:18:18.609Z,99.10
2017-12-11T22:20:46.767Z,99.10
2017-12-11T22:23:14.976Z,99.10
2017-12-11T22:25:43.123Z,99.10
2017-12-11T22:28:11.330Z,99.20
2017-12-11T22:30:39.459Z,99.20
2017-12-11T22:33:07.621Z,99.20
2017-12-11T22:35:35.761Z,99.20
2017-12-11T22:38:03.930Z,99.30
2017-12-11T22:40:32.092Z,99.30
2017-12-11T22:43:00.290Z,99.30
2017-12-11T22:45:28.459Z,99.30
2017-12-11T22:47:56.602Z,99.40
2017-12-11T22:50:24.757Z,99.40
2017-12-11T22:52:52.889Z,99.40
2017-12-11T22:55:21.092Z,99.40
2017-12-11T22:57:49.217Z,99.50
2017-12-11T23:00:29.033Z,99.50
2017-12-11T23:02:57.179Z,99.50
2017-12-11T23:05:25.346Z,99.50
2017-12-11T23:07:53.469Z,99.60
2017-12-11T23:10:21.630Z,99.60
2017-12-11T23:12:49.753Z,99.70
2017-12-11T23:15:17.904Z,99.70
2017-12-11T23:17:46.040Z,99.70
2017-12-11T23:20:14.201Z,99.70
2017-12-11T23:22:42.330Z,99.70
2017-12-11T23:25:10.488Z,99.70
2017-12-11T23:27:38.641Z,99.70
2017-12-11T23:30:06.797Z,99.80
2017-12-11T23:32:34.925Z,99.80
2017-12-11T23:35:03.088Z,99.80
2017-12-11T23:37:31.217Z,99.90
2017-12-11T23:39:59.371Z,99.90
2017-12-11T23:42:28.296Z,99.90
2017-12-11T23:44:56.457Z,99.90
2017-12-11T23:47:24.584Z,99.90
2017-12-11T23:49:52.741Z,99.90
2017-12-11T23:52:20.864Z,99.90
2017-12-11T23:54:49.019Z,99.90
2017-12-11T23:57:17.937Z,99.90
2017-12-11T23:59:46.094Z,99.90
